Latest Coastal Weather Observations for Yarram Airport

IDV60701

Issued at 1:12 am EST Thursday 3 September 2026 (issued every 10 minutes, with the page automatically refreshed every 10 minutes)

About coastal observations | Map of coastal stations | Coastal observations for VIC | Marine services | Other Formats
Station Details ID: 085151 Name: YARRAM AIRPORT Lat: -38.56 Lon: 146.75 Height: 17.9 m
Data from the previous 72 hours. | See also: Recent months at Yarram Airport
Date/Time
EST
Wind Sea
Height
m
Swell Vis
km
Cloud Weather Temp
°C
Press
MSL
hPa
Rain since
9am
mm
Dir  Spd
kts
Gust
kts
Height
m
Period
s
Dir
03/01:00am NNW 1 4 - - - - - - - 5.8 1009.0 0.0
03/12:30am NE 5 7 - - - - - - - 6.2 1009.3 0.0
03/12:00am NNE 5 6 - - - - - - - 5.6 1009.5 0.0
 
Date/Time
EST
Wind Sea
Height
m
Swell Vis
km
Cloud Weather Temp
°C
Press
MSL
hPa
Rain since
9am
mm
Dir  Spd
kts
Gust
kts
Height
m
Period
s
Dir
02/11:30pm N 4 5 - - - - - - - 5.0 1009.8 0.0
02/11:00pm NNE 5 7 - - - - - - - 4.5 1010.3 0.0
02/10:30pm NE 5 6 - - - - - - - 5.3 1010.6 0.0
02/10:00pm NNE 5 7 - - - - - - - 6.0 1011.0 0.0
02/09:30pm W 4 5 - - - - - - - 8.6 1011.2 0.0
02/09:00pm WSW 6 6 - - - - - - - 8.4 1011.3 0.0
02/08:30pm WSW 6 8 - - - - - - - 8.1 1011.2 0.0
02/08:00pm WSW 4 5 - - - - - - - 7.5 1011.1 0.0
02/07:30pm SW 5 6 - - - - - - - 9.5 1010.9 0.0
02/07:00pm SW 6 7 - - - - - - - 9.3 1010.9 0.0
02/06:30pm SW 6 7 - - - - - - - 9.5 1010.7 0.0
02/06:00pm SW 6 8 - - - - - - - 10.1 1010.5 0.0
02/05:30pm WSW 5 7 - - - - - - - 12.9 1010.2 0.0
02/05:00pm WSW 7 9 - - - - - - - 14.6 1010.3 0.0
02/04:30pm WSW 9 14 - - - - - - - 15.5 1010.4 0.0
02/04:00pm WSW 12 15 - - - - - - - 16.0 1010.6 0.0
02/03:30pm WSW 13 17 - - - - - - - 16.3 1010.3 0.0
02/03:00pm WSW 13 18 - - - - - - - 16.6 1010.3 0.0
02/02:30pm WSW 14 19 - - - - - - - 16.7 1010.5 0.0
02/02:00pm WSW 14 18 - - - - - - - 16.8 1010.7 0.0
02/01:30pm WSW 15 19 - - - - - - - 16.6 1011.2 0.0
02/01:00pm WSW 14 19 - - - - - - - 16.7 1011.6 0.0
02/12:30pm W 13 21 - - - - - - - 16.5 1012.1 0.0
02/12:00pm WSW 13 18 - - - - - - - 15.0 1012.6 0.0
02/11:30am WSW 13 20 - - - - - - - 15.6 1013.0 0.0
02/11:00am W 14 19 - - - - - - - 15.0 1013.5 0.0
02/10:30am WSW 15 22 - - - - - - - 14.5 1013.7 0.0
02/10:00am W 15 20 - - - - - - - 14.7 1013.9 0.0
02/09:30am W 14 19 - - - - - - - 13.3 1014.1 0.0
02/09:00am WSW 11 17 - - - - - - - 13.3 1014.0 0.0
02/08:30am WSW 12 16 - - - - - - - 13.1 1013.9 0.0
02/08:00am W 9 12 - - - - - - - 12.8 1013.8 0.0
02/07:30am W 9 11 - - - - - - - 12.5 1013.3 0.0
02/07:00am W 10 13 - - - - - - - 12.1 1012.8 0.0
02/06:30am WSW 11 17 - - - - - - - 12.4 1012.5 0.0
02/06:00am W 11 15 - - - - - - - 12.9 1012.1 0.0
02/05:30am W 11 15 - - - - - - - 13.1 1012.0 0.0
02/05:00am WSW 11 16 - - - - - - - 13.0 1011.7 0.0
02/04:30am WSW 13 17 - - - - - - - 12.9 1011.4 0.0
02/04:17am SW 17 22 - - - - - - - 13.1 1011.3 0.0
02/04:07am SW 14 23 - - - - - - - 13.6 1010.9 0.0
02/04:00am WSW 11 13 - - - - - - - 14.9 1010.8 0.0
02/03:30am W 8 11 - - - - - - - 15.0 1010.4 0.0
02/03:00am W 10 12 - - - - - - - 15.2 1010.4 0.0
02/02:30am WNW 11 14 - - - - - - - 15.2 1010.6 0.0
02/02:00am WNW 17 25 - - - - - - - 15.7 1010.7 0.0
02/01:30am NW 16 22 - - - - - - - 16.0 1010.6 0.0
02/01:00am NW 14 19 - - - - - - - 16.2 1010.6 0.0
02/12:30am NW 16 24 - - - - - - - 16.5 1010.8 0.0
02/12:29am NW 16 24 - - - - - - - 16.6 1010.9 0.0
02/12:10am NW 16 31 - - - - - - - 16.8 1010.9 0.0
02/12:00am NW 17 23 - - - - - - - 16.4 1010.9 0.0
 
Date/Time
EST
Wind Sea
Height
m
Swell Vis
km
Cloud Weather Temp
°C
Press
MSL
hPa
Rain since
9am
mm
Dir  Spd
kts
Gust
kts
Height
m
Period
s
Dir
01/11:58pm NW 17 23 - - - - - - - 16.5 1010.9 0.0
01/11:30pm NW 16 25 - - - - - - - 18.0 1010.8 0.0
01/11:28pm NW 15 25 - - - - - - - 17.7 1010.8 0.0
01/11:00pm NW 13 21 - - - - - - - 17.8 1010.9 0.0
01/10:30pm WNW 15 21 - - - - - - - 17.1 1011.1 0.0
01/10:07pm NW 13 19 - - - - - - - 18.3 1011.1 0.0
01/10:00pm NW 16 23 - - - - - - - 18.8 1011.1 0.0
01/09:57pm NW 15 23 - - - - - - - 18.9 1011.2 0.0
01/09:30pm NNW 9 13 - - - - - - - 18.0 1011.1 0.0
01/09:00pm NNW 9 13 - - - - - - - 18.1 1011.2 0.0
01/08:30pm NNW 10 15 - - - - - - - 17.4 1011.1 0.0
01/08:00pm NNW 12 19 - - - - - - - 18.2 1011.4 0.0
01/07:30pm NNW 13 21 - - - - - - - 18.8 1011.6 0.0
01/07:00pm NNW 14 19 - - - - - - - 19.1 1012.2 0.0
01/06:30pm NNW 14 21 - - - - - - - 18.9 1012.5 0.0
01/06:00pm NW 12 20 - - - - - - - 18.7 1012.7 0.0
01/05:30pm WNW 10 15 - - - - - - - 19.0 1012.2 0.0
01/05:00pm NW 10 16 - - - - - - - 19.3 1012.0 0.0
01/04:30pm NW 13 19 - - - - - - - 20.3 1011.8 0.0
01/04:00pm NNW 16 22 - - - - - - - 20.9 1011.4 0.0
01/03:43pm NW 16 23 - - - - - - - 20.6 1011.8 0.0
01/03:30pm NW 20 30 - - - - - - - 21.0 1011.8 0.0
01/03:24pm NW 19 30 - - - - - - - 21.3 1011.8 0.0
01/03:20pm NW 19 26 - - - - - - - 20.9 1012.1 0.0
01/03:00pm NW 17 30 - - - - - - - 21.5 1012.1 0.0
01/02:30pm NW 19 26 - - - - - - - 21.6 1012.5 0.0
01/02:19pm NW 18 31 - - - - - - - 22.1 1012.5 0.0
01/02:00pm NW 14 22 - - - - - - - 22.0 1013.0 0.0
01/01:50pm WNW 15 22 - - - - - - - 22.3 1013.1 0.0
01/01:30pm NW 15 27 - - - - - - - 22.1 1013.4 0.0
01/01:26pm NW 15 27 - - - - - - - 22.0 1013.4 0.0
01/01:00pm NW 14 22 - - - - - - - 21.6 1014.1 0.0
01/12:30pm NNW 8 12 - - - - - - - 21.5 1015.0 0.0
01/12:00pm NW 8 14 - - - - - - - 21.4 1015.4 0.0
01/11:30am NW 9 13 - - - - - - - 20.8 1016.2 0.0
01/11:00am W 4 8 - - - - - - - 20.4 1016.8 0.0
01/10:30am NW 2 6 - - - - - - - 20.1 1017.3 0.0
01/10:00am NNE 4 5 - - - - - - - 19.5 1018.0 0.0
01/09:30am ENE 5 7 - - - - - - - 18.4 1018.7 0.0
01/09:00am ENE 4 5 - - - - - - - 17.2 1019.5 0.0
01/08:30am NE 5 7 - - - - - - - 15.2 1020.0 0.0
01/08:26am NE 5 6 - - - - - - - 14.8 1020.1 0.0
01/08:00am NNE 4 5 - - - - - - - 9.6 1020.3 0.0
01/07:30am N 4 6 - - - - - - - 6.0 1020.4 0.0
01/07:00am NNW 5 7 - - - - - - - 3.1 1020.4 0.0
01/06:30am N 4 4 - - - - - - - 3.1 1020.5 0.0
01/06:00am NNW 6 7 - - - - - - - 4.1 1020.5 0.0
01/05:30am NNW 6 7 - - - - - - - 4.1 1020.4 0.0
01/05:00am N 5 6 - - - - - - - 1.5 1020.9 0.0
01/04:30am WNW 4 6 - - - - - - - 1.6 1021.2 0.0
01/04:00am NNE 5 6 - - - - - - - 0.8 1021.5 0.0
01/03:30am N 4 5 - - - - - - - 0.9 1021.8 0.0
01/03:00am NW 3 4 - - - - - - - 0.8 1022.2 0.0
01/02:30am WNW 3 4 - - - - - - - 1.2 1022.7 0.0
01/02:00am CALM 0 0 - - - - - - - 1.5 1023.2 0.0
01/01:30am CALM 0 0 - - - - - - - 1.3 1023.9 0.0
01/01:00am CALM 0 0 - - - - - - - 1.8 1024.2 0.0
01/12:30am CALM 0 0 - - - - - - - 2.7 1024.7 0.0
01/12:00am NNW 3 3 - - - - - - - 2.4 1025.1 0.0
 
Date/Time
EST
Wind Sea
Height
m
Swell Vis
km
Cloud Weather Temp
°C
Press
MSL
hPa
Rain since
9am
mm
Dir  Spd
kts
Gust
kts
Height
m
Period
s
Dir
31/11:30pm WNW 4 4 - - - - - - - 3.0 1025.5 0.0
31/11:00pm N 3 3 - - - - - - - 2.4 1026.0 0.0
31/10:30pm N 3 4 - - - - - - - 3.4 1026.4 0.0
31/10:00pm NE 3 4 - - - - - - - 4.9 1026.7 0.0
31/09:30pm ENE 5 6 - - - - - - - 6.4 1026.9 0.0
31/09:00pm NNE 5 6 - - - - - - - 5.6 1027.2 0.0
31/08:30pm NNE 5 6 - - - - - - - 5.9 1027.4 0.0
31/08:00pm NNW 3 5 - - - - - - - 6.3 1027.7 0.0
31/07:30pm NW 3 4 - - - - - - - 5.9 1027.9 0.0
31/07:00pm WNW 2 3 - - - - - - - 7.2 1028.0 0.0
31/06:30pm SSW 5 5 - - - - - - - 9.3 1027.9 0.0
31/06:00pm SSE 5 5 - - - - - - - 10.5 1027.7 0.0
31/05:30pm S 5 6 - - - - - - - 11.9 1027.8 0.0
31/05:00pm SSW 8 10 - - - - - - - 13.8 1027.7 0.0
31/04:30pm SW 7 9 - - - - - - - 15.4 1027.5 0.0
31/04:00pm SSW 8 10 - - - - - - - 15.6 1027.7 0.0
31/03:30pm SW 10 11 - - - - - - - 16.1 1028.0 0.0
31/03:00pm SW 8 11 - - - - - - - 16.6 1028.3 0.0
31/02:30pm SW 10 13 - - - - - - - 16.4 1028.5 0.0
31/02:00pm SW 10 12 - - - - - - - 16.5 1028.8 0.0
31/01:30pm SW 9 11 - - - - - - - 16.6 1029.3 0.0
31/01:00pm SW 9 12 - - - - - - - 16.2 1029.7 0.0
31/12:30pm SW 9 13 - - - - - - - 15.7 1030.2 0.0
31/12:00pm SW 9 13 - - - - - - - 15.5 1030.7 0.0
31/11:30am WSW 9 13 - - - - - - - 15.6 1031.1 0.0
31/11:00am WSW 10 13 - - - - - - - 14.4 1031.4 0.0
31/10:30am WSW 9 14 - - - - - - - 14.0 1031.6 0.0
31/10:00am WSW 9 13 - - - - - - - 13.8 1031.7 0.0
31/09:30am WSW 12 14 - - - - - - - 12.7 1031.7 0.0
31/09:00am WSW 9 15 - - - - - - - 11.6 1031.7 0.0
31/08:30am WNW 7 9 - - - - - - - 10.7 1031.7 0.0
31/08:00am NW 4 7 - - - - - - - 8.5 1031.6 0.0
31/07:30am NW 5 6 - - - - - - - 5.8 1031.4 0.0
31/07:00am WNW 4 5 - - - - - - - 4.9 1031.2 0.0
31/06:30am W 4 5 - - - - - - - 4.6 1031.1 0.0
31/06:00am WNW 7 8 - - - - - - - 5.1 1030.7 0.0
31/05:30am WNW 8 9 - - - - - - - 5.7 1030.7 0.0
31/05:00am WNW 7 9 - - - - - - - 5.9 1030.5 0.0
31/04:30am WNW 5 6 - - - - - - - 6.9 1030.7 0.0
31/04:00am W 7 9 - - - - - - - 7.8 1030.6 0.0
31/03:30am W 7 9 - - - - - - - 7.9 1030.7 0.0
31/03:00am W 7 10 - - - - - - - 8.1 1030.6 0.0
31/02:30am W 6 7 - - - - - - - 6.8 1030.9 0.0
31/02:00am WNW 8 9 - - - - - - - 7.5 1031.1 0.0
31/01:30am W 6 9 - - - - - - - 9.0 1031.3 0.0

Other formats

Comma delimited format used in spreadsheet applications
http://www.bom.gov.au/fwo/IDV60701/IDV60701.95890.axf

JavaScript Object Notation format (JSON) in row-major order
http://www.bom.gov.au/fwo/IDV60701/IDV60701.95890.json

Data quality

Most of these data are generated automatically and are frequently updated. Quality checks on data are not normally performed. It is possible for incorrect values to appear. Refer to information at About Latest Weather Observations and please check the disclaimer before using these data.